createdAt,value
2022-09-30T00:00:50.106Z,93.0
2022-09-30T00:05:56.462Z,93.0
2022-09-30T00:11:02.520Z,93.0
2022-09-30T00:16:08.952Z,93.0
2022-09-30T00:21:14.934Z,93.0
2022-09-30T00:26:21.268Z,93.0
2022-09-30T00:31:27.416Z,93.5
2022-09-30T00:36:33.760Z,93.0
2022-09-30T00:41:39.761Z,93.5
2022-09-30T00:46:46.241Z,93.0
2022-09-30T00:51:51.206Z,93.0
2022-09-30T00:56:57.632Z,93.5
2022-09-30T01:02:02.761Z,93.5
2022-09-30T01:07:09.097Z,93.5
2022-09-30T01:12:15.066Z,93.5
2022-09-30T01:17:21.527Z,93.5
2022-09-30T01:22:27.487Z,93.5
2022-09-30T01:27:33.931Z,93.5
2022-09-30T01:32:39.899Z,93.5
2022-09-30T01:37:46.373Z,93.5
2022-09-30T01:42:52.317Z,93.5
2022-09-30T01:47:58.648Z,93.5
2022-09-30T01:53:04.723Z,93.5
2022-09-30T01:58:10.933Z,93.5
2022-09-30T02:03:17.142Z,93.5
2022-09-30T02:08:23.556Z,93.5
2022-09-30T02:13:29.558Z,93.5
2022-09-30T02:18:35.763Z,93.5
2022-09-30T02:23:42.208Z,93.5
2022-09-30T02:28:48.183Z,93.5
2022-09-30T02:33:54.637Z,93.5
2022-09-30T02:39:00.595Z,93.5
2022-09-30T02:44:07.021Z,93.5
2022-09-30T02:49:12.043Z,93.5
2022-09-30T02:54:18.494Z,93.5
2022-09-30T02:59:23.608Z,93.5
2022-09-30T03:04:29.819Z,93.5
2022-09-30T03:09:35.961Z,93.5
2022-09-30T03:14:42.333Z,94.0
2022-09-30T03:19:48.315Z,94.0
2022-09-30T03:24:54.772Z,94.0
2022-09-30T03:30:00.733Z,94.0
2022-09-30T03:35:07.094Z,94.0
2022-09-30T03:40:13.144Z,94.0
2022-09-30T03:45:19.580Z,94.0
2022-09-30T03:50:25.565Z,94.0
2022-09-30T03:55:31.922Z,94.0
2022-09-30T04:00:38.028Z,94.0
2022-09-30T04:05:44.414Z,94.0
2022-09-30T04:10:50.394Z,94.0
2022-09-30T04:15:57.195Z,94.0
2022-09-30T04:21:02.808Z,94.0
2022-09-30T04:26:09.251Z,94.0
2022-09-30T04:31:15.251Z,94.0
2022-09-30T04:36:21.624Z,94.0
2022-09-30T04:41:27.636Z,94.0
2022-09-30T04:46:33.066Z,94.0
2022-09-30T04:51:39.076Z,94.0
2022-09-30T04:56:44.527Z,94.0
2022-09-30T05:01:50.568Z,94.0
2022-09-30T05:06:56.942Z,94.0
2022-09-30T05:12:02.942Z,94.0
2022-09-30T05:17:09.369Z,94.0
2022-09-30T05:22:15.358Z,94.0
2022-09-30T05:27:21.784Z,94.0
2022-09-30T05:32:27.768Z,94.0
2022-09-30T05:37:34.165Z,94.5
2022-09-30T05:42:40.179Z,94.5
2022-09-30T05:47:46.516Z,94.5
2022-09-30T05:52:52.588Z,94.5
2022-09-30T05:57:58.935Z,94.5
2022-09-30T06:03:05.096Z,94.5
2022-09-30T06:08:11.441Z,94.5
2022-09-30T06:13:17.422Z,94.5
2022-09-30T06:18:23.626Z,95.0
2022-09-30T06:23:29.832Z,94.5
2022-09-30T06:28:36.034Z,95.0
2022-09-30T06:33:42.522Z,95.0
2022-09-30T06:38:48.460Z,95.5
2022-09-30T06:49:06.816Z,96.0
2022-09-30T06:54:05.140Z,96.5
2022-09-30T06:59:11.352Z,96.5
2022-09-30T07:04:17.790Z,97.0
2022-09-30T07:09:22.913Z,97.0
2022-09-30T07:14:29.114Z,97.0
2022-09-30T07:19:35.204Z,97.0
2022-09-30T07:24:41.609Z,97.5
2022-09-30T07:30:08.213Z,97.5
2022-09-30T07:34:53.831Z,97.0
2022-09-30T07:40:00.026Z,97.0
2022-09-30T07:45:06.474Z,97.0
2022-09-30T07:50:12.443Z,97.0
2022-09-30T07:55:18.785Z,97.0
2022-09-30T08:00:41.077Z,97.0
2022-09-30T08:05:31.070Z,97.0
2022-09-30T08:10:37.274Z,97.0
2022-09-30T08:15:43.620Z,97.0
2022-09-30T08:20:49.688Z,97.0
2022-09-30T08:25:56.033Z,97.0
2022-09-30T08:31:02.108Z,97.0
2022-09-30T08:36:08.548Z,96.5
2022-09-30T08:41:14.518Z,96.5
2022-09-30T08:46:20.911Z,96.5
2022-09-30T08:51:26.934Z,96.5
2022-09-30T08:56:32.414Z,96.5
2022-09-30T09:01:38.476Z,96.5
2022-09-30T09:06:44.721Z,96.0
2022-09-30T09:11:50.802Z,96.0
2022-09-30T09:16:56.311Z,96.0
2022-09-30T09:22:02.241Z,95.5
2022-09-30T09:27:08.661Z,95.5
2022-09-30T09:32:14.695Z,95.0
2022-09-30T09:37:21.104Z,95.0
2022-09-30T09:42:27.117Z,95.0
2022-09-30T09:47:33.427Z,94.5
2022-09-30T09:52:39.507Z,94.0
2022-09-30T09:57:45.859Z,93.5
2022-09-30T10:02:51.938Z,92.5
2022-09-30T10:07:58.361Z,92.0
2022-09-30T10:13:04.412Z,91.5
2022-09-30T10:18:10.570Z,90.5
2022-09-30T10:23:16.779Z,90.5
2022-09-30T10:28:23.277Z,90.0
2022-09-30T10:33:29.199Z,89.5
2022-09-30T10:38:35.489Z,89.0
2022-09-30T10:43:41.849Z,88.5
2022-09-30T10:48:47.820Z,88.0
2022-09-30T10:53:54.170Z,87.0
2022-09-30T10:59:00.249Z,86.5
2022-09-30T11:04:05.631Z,86.0
2022-09-30T11:09:11.678Z,85.5
2022-09-30T11:14:18.017Z,85.0
2022-09-30T11:19:24.096Z,85.0
2022-09-30T11:24:30.448Z,84.5
2022-09-30T11:29:36.520Z,84.0
2022-09-30T11:34:42.867Z,83.5
2022-09-30T11:39:48.947Z,83.5
2022-09-30T11:44:55.273Z,83.0
2022-09-30T11:50:01.359Z,82.5
2022-09-30T11:55:10.589Z,82.5
2022-09-30T12:00:13.769Z,82.0
2022-09-30T12:05:20.201Z,81.5
2022-09-30T12:10:26.191Z,81.0
2022-09-30T12:15:32.522Z,80.0
2022-09-30T12:20:38.596Z,78.5
2022-09-30T12:25:45.041Z,79.0
2022-09-30T12:30:51.016Z,78.0
2022-09-30T12:35:57.375Z,77.0
2022-09-30T12:41:03.432Z,78.0
2022-09-30T12:46:09.827Z,77.5
2022-09-30T12:51:14.876Z,76.5
2022-09-30T12:56:21.221Z,77.0
2022-09-30T13:01:26.358Z,77.0
2022-09-30T13:06:33.214Z,76.5
2022-09-30T13:11:37.764Z,77.0
2022-09-30T13:16:44.252Z,77.0
2022-09-30T13:21:52.175Z,78.0
2022-09-30T13:26:56.593Z,77.5
2022-09-30T13:32:02.708Z,77.0
2022-09-30T13:37:08.938Z,77.0
2022-09-30T13:42:15.024Z,76.5
2022-09-30T13:47:21.437Z,77.0
2022-09-30T13:52:27.433Z,77.0
2022-09-30T13:57:33.771Z,77.0
2022-09-30T14:02:39.849Z,76.5
2022-09-30T14:07:46.256Z,75.5
2022-09-30T14:12:52.273Z,76.0
2022-09-30T14:17:58.694Z,75.5
2022-09-30T14:23:04.682Z,74.5
2022-09-30T14:28:11.121Z,74.5
2022-09-30T14:33:17.099Z,74.5
2022-09-30T14:38:23.308Z,74.5
2022-09-30T14:43:29.519Z,74.5
2022-09-30T14:48:35.726Z,74.5
2022-09-30T14:53:42.068Z,74.5
2022-09-30T14:58:47.169Z,74.5
2022-09-30T15:03:53.616Z,75.0
2022-09-30T15:08:59.581Z,74.5
2022-09-30T15:14:05.036Z,74.5
2022-09-30T15:19:11.027Z,74.5
2022-09-30T15:24:17.489Z,74.5
2022-09-30T15:29:23.448Z,74.5
2022-09-30T15:34:29.796Z,74.5
2022-09-30T15:39:35.859Z,74.5
2022-09-30T15:44:42.241Z,75.0
2022-09-30T15:49:48.275Z,75.0
2022-09-30T15:54:54.620Z,75.0
2022-09-30T16:00:00.713Z,75.5
2022-09-30T16:05:07.051Z,75.5
2022-09-30T16:10:13.124Z,75.5
2022-09-30T16:15:19.526Z,75.5
2022-09-30T16:20:25.528Z,75.5
2022-09-30T16:25:31.972Z,75.5
2022-09-30T16:30:37.947Z,76.0
2022-09-30T16:35:44.381Z,76.0
2022-09-30T16:40:50.366Z,76.5
2022-09-30T16:45:56.860Z,76.5
2022-09-30T16:51:01.804Z,77.0
2022-09-30T16:56:08.233Z,77.0
2022-09-30T17:01:13.294Z,77.5
2022-09-30T17:06:19.703Z,78.0
2022-09-30T17:11:24.693Z,78.5
2022-09-30T17:16:31.436Z,78.5
2022-09-30T17:21:37.103Z,79.0
2022-09-30T17:26:43.544Z,79.0
2022-09-30T17:31:49.544Z,79.5
2022-09-30T17:36:55.922Z,80.0
2022-09-30T17:42:01.948Z,80.0
2022-09-30T17:47:08.372Z,80.0
2022-09-30T17:52:14.383Z,80.5
2022-09-30T17:57:20.738Z,80.5
2022-09-30T18:02:26.841Z,81.0
2022-09-30T18:07:33.153Z,81.0
2022-09-30T18:12:39.249Z,81.5
2022-09-30T18:17:45.669Z,82.0
2022-09-30T18:22:51.666Z,82.0
2022-09-30T18:27:58.204Z,82.0
2022-09-30T18:33:04.102Z,82.5
2022-09-30T18:38:10.318Z,82.5
2022-09-30T18:43:16.534Z,83.0
2022-09-30T18:48:22.951Z,83.0
2022-09-30T18:53:32.760Z,83.0
2022-09-30T18:58:34.208Z,83.5
2022-09-30T19:03:40.555Z,83.5
2022-09-30T19:08:46.621Z,83.5
2022-09-30T19:13:53.086Z,83.5
2022-09-30T19:18:59.052Z,84.0
2022-09-30T19:24:05.482Z,84.0
2022-09-30T19:29:11.477Z,84.0
2022-09-30T19:34:29.333Z,84.0
2022-09-30T19:39:24.774Z,84.0
2022-09-30T19:44:30.332Z,84.5
2022-09-30T19:49:36.330Z,84.5
2022-09-30T19:54:42.786Z,84.5
2022-09-30T19:59:48.760Z,84.5
2022-09-30T20:04:55.180Z,84.5
2022-09-30T20:10:01.185Z,84.5
2022-09-30T20:15:07.520Z,85.0
2022-09-30T20:20:13.603Z,85.0
2022-09-30T20:25:19.954Z,85.0
2022-09-30T20:30:26.027Z,85.0
2022-09-30T20:40:38.455Z,84.5
2022-09-30T20:45:44.941Z,84.5
2022-09-30T20:50:49.907Z,84.5
2022-09-30T20:55:56.623Z,84.5
2022-09-30T21:01:01.403Z,84.0
2022-09-30T21:06:07.711Z,84.0
2022-09-30T21:11:13.806Z,83.5
2022-09-30T21:16:20.272Z,83.5
2022-09-30T21:21:26.221Z,83.5
2022-09-30T21:26:32.640Z,83.5
2022-09-30T21:31:38.713Z,83.5
2022-09-30T21:36:45.079Z,83.5
2022-09-30T21:41:51.078Z,83.5
2022-09-30T21:46:57.434Z,83.5
2022-09-30T21:52:03.514Z,83.5
2022-09-30T21:57:09.851Z,83.5
2022-09-30T22:02:15.957Z,83.5
2022-09-30T22:07:22.267Z,84.0
2022-09-30T22:12:28.350Z,84.0
2022-09-30T22:17:34.708Z,84.0
2022-09-30T22:22:40.776Z,84.0
2022-09-30T22:32:53.210Z,84.5
2022-09-30T22:37:59.562Z,85.0
2022-09-30T22:43:05.620Z,85.5
2022-09-30T22:48:11.971Z,86.0
2022-09-30T22:53:17.075Z,86.5
2022-09-30T22:58:23.419Z,87.0
2022-09-30T23:03:28.610Z,87.5
2022-09-30T23:08:34.826Z,88.0
2022-09-30T23:13:41.076Z,88.5
2022-09-30T23:18:47.146Z,89.0
2022-09-30T23:23:53.479Z,89.5
2022-09-30T23:28:59.565Z,90.0
2022-09-30T23:34:05.991Z,90.5
2022-09-30T23:39:11.980Z,90.5
2022-09-30T23:44:18.398Z,91.0
2022-09-30T23:49:24.397Z,91.5
2022-09-30T23:54:30.729Z,91.5
2022-09-30T23:59:36.808Z,92.0
